sensor_id;sensor_type;location;lat;lon;timestamp;pressure;altitude;pressure_sealevel;temperature;humidity
39491;BME280;25175;50.140;18.990;2023-08-12T00:02:13;99085.03;;;18.09;57.54
39491;BME280;25175;50.140;18.990;2023-08-12T00:05:19;99072.25;;;17.94;57.94
39491;BME280;25175;50.140;18.990;2023-08-12T00:08:23;99083.94;;;17.93;58.13
39491;BME280;25175;50.140;18.990;2023-08-12T00:11:31;99079.25;;;17.84;58.33
39491;BME280;25175;50.140;18.990;2023-08-12T00:14:36;99085.84;;;17.81;58.25
39491;BME280;25175;50.140;18.990;2023-08-12T00:17:41;99076.22;;;17.47;58.19
39491;BME280;25175;50.140;18.990;2023-08-12T00:20:46;99083.00;;;17.71;58.32
39491;BME280;25175;50.140;18.990;2023-08-12T00:23:51;99088.22;;;17.66;58.20
39491;BME280;25175;50.140;18.990;2023-08-12T00:26:58;99089.19;;;17.60;58.09
39491;BME280;25175;50.140;18.990;2023-08-12T00:30:05;99089.69;;;17.57;58.28
39491;BME280;25175;50.140;18.990;2023-08-12T00:33:10;99073.81;;;17.46;57.87
39491;BME280;25175;50.140;18.990;2023-08-12T00:36:15;99076.69;;;17.44;57.90
39491;BME280;25175;50.140;18.990;2023-08-12T00:39:20;99086.84;;;17.47;58.11
39491;BME280;25175;50.140;18.990;2023-08-12T00:42:28;99071.22;;;17.34;58.15
39491;BME280;25175;50.140;18.990;2023-08-12T00:45:33;99086.09;;;17.35;58.21
39491;BME280;25175;50.140;18.990;2023-08-12T00:48:39;99082.28;;;17.31;58.25
39491;BME280;25175;50.140;18.990;2023-08-12T00:51:45;99085.41;;;17.28;58.30
39491;BME280;25175;50.140;18.990;2023-08-12T00:54:52;99077.78;;;17.20;58.54
39491;BME280;25175;50.140;18.990;2023-08-12T00:58:00;99077.69;;;17.15;58.52
39491;BME280;25175;50.140;18.990;2023-08-12T01:01:07;99072.88;;;17.12;58.64
39491;BME280;25175;50.140;18.990;2023-08-12T01:04:12;99063.19;;;17.06;58.74
39491;BME280;25175;50.140;18.990;2023-08-12T01:07:17;99070.03;;;17.02;58.39
39491;BME280;25175;50.140;18.990;2023-08-12T01:10:24;99064.38;;;16.99;58.81
39491;BME280;25175;50.140;18.990;2023-08-12T01:13:49;99048.03;;;16.90;58.80
39491;BME280;25175;50.140;18.990;2023-08-12T01:17:04;99064.03;;;16.95;58.75
39491;BME280;25175;50.140;18.990;2023-08-12T01:20:11;99069.56;;;16.94;58.89
39491;BME280;25175;50.140;18.990;2023-08-12T01:23:19;99063.13;;;16.90;58.57
39491;BME280;25175;50.140;18.990;2023-08-12T01:26:25;99075.47;;;16.84;58.86
39491;BME280;25175;50.140;18.990;2023-08-12T01:29:31;99062.47;;;16.71;59.01
39491;BME280;25175;50.140;18.990;2023-08-12T01:32:43;99077.31;;;16.72;59.13
39491;BME280;25175;50.140;18.990;2023-08-12T01:36:00;99074.13;;;16.70;58.94
39491;BME280;25175;50.140;18.990;2023-08-12T01:39:18;98792.50;;;14.88;58.98
39491;BME280;25175;50.140;18.990;2023-08-12T01:42:26;99065.25;;;16.53;58.95
39491;BME280;25175;50.140;18.990;2023-08-12T01:45:33;99083.34;;;16.56;59.39
39491;BME280;25175;50.140;18.990;2023-08-12T01:48:39;99081.63;;;16.50;59.33
39491;BME280;25175;50.140;18.990;2023-08-12T01:51:43;99092.47;;;16.49;59.53
39491;BME280;25175;50.140;18.990;2023-08-12T01:54:52;99095.13;;;16.49;59.74
39491;BME280;25175;50.140;18.990;2023-08-12T01:57:56;99091.66;;;16.48;59.86
39491;BME280;25175;50.140;18.990;2023-08-12T02:01:02;99094.28;;;16.48;59.86
39491;BME280;25175;50.140;18.990;2023-08-12T02:04:06;99094.47;;;16.47;59.80
39491;BME280;25175;50.140;18.990;2023-08-12T02:07:12;99092.06;;;16.45;59.86
39491;BME280;25175;50.140;18.990;2023-08-12T02:10:19;99081.72;;;16.32;60.16
39491;BME280;25175;50.140;18.990;2023-08-12T02:13:25;99085.06;;;16.28;60.45
39491;BME280;25175;50.140;18.990;2023-08-12T02:16:29;99095.38;;;16.29;60.24
39491;BME280;25175;50.140;18.990;2023-08-12T02:19:34;99100.00;;;16.22;60.52
39491;BME280;25175;50.140;18.990;2023-08-12T02:22:39;99103.34;;;16.18;60.51
39491;BME280;25175;50.140;18.990;2023-08-12T02:25:47;99099.53;;;16.14;60.61
39491;BME280;25175;50.140;18.990;2023-08-12T02:28:51;99093.66;;;16.00;60.57
39491;BME280;25175;50.140;18.990;2023-08-12T02:31:57;99091.91;;;15.94;60.55
39491;BME280;25175;50.140;18.990;2023-08-12T02:35:04;99102.28;;;15.96;60.85
39491;BME280;25175;50.140;18.990;2023-08-12T02:38:10;99103.53;;;15.93;60.73
39491;BME280;25175;50.140;18.990;2023-08-12T02:41:17;99105.16;;;15.94;60.56
39491;BME280;25175;50.140;18.990;2023-08-12T02:44:22;99103.97;;;15.90;60.46
39491;BME280;25175;50.140;18.990;2023-08-12T02:47:27;99099.38;;;15.86;60.81
39491;BME280;25175;50.140;18.990;2023-08-12T02:50:33;99100.41;;;15.85;60.56
39491;BME280;25175;50.140;18.990;2023-08-12T02:53:37;99104.88;;;15.84;60.41
39491;BME280;25175;50.140;18.990;2023-08-12T02:56:45;99098.19;;;15.82;60.37
39491;BME280;25175;50.140;18.990;2023-08-12T02:59:50;99113.28;;;15.82;59.95
39491;BME280;25175;50.140;18.990;2023-08-12T03:02:55;99091.72;;;15.67;60.14
39491;BME280;25175;50.140;18.990;2023-08-12T03:06:00;99106.75;;;15.66;60.42
39491;BME280;25175;50.140;18.990;2023-08-12T03:09:06;99078.19;;;15.56;60.09
39491;BME280;25175;50.140;18.990;2023-08-12T03:12:13;99086.13;;;15.56;59.82
39491;BME280;25175;50.140;18.990;2023-08-12T03:15:19;99101.56;;;15.59;60.19
39491;BME280;25175;50.140;18.990;2023-08-12T03:18:24;99096.16;;;15.54;60.08
39491;BME280;25175;50.140;18.990;2023-08-12T03:21:29;99086.59;;;15.53;59.88
39491;BME280;25175;50.140;18.990;2023-08-12T03:24:35;99076.09;;;15.47;59.87
39491;BME280;25175;50.140;18.990;2023-08-12T03:27:43;99088.06;;;15.49;60.32
39491;BME280;25175;50.140;18.990;2023-08-12T03:30:52;99091.03;;;15.42;60.22
39491;BME280;25175;50.140;18.990;2023-08-12T03:34:00;99099.97;;;15.40;60.00
39491;BME280;25175;50.140;18.990;2023-08-12T03:37:07;99091.69;;;15.37;60.09
39491;BME280;25175;50.140;18.990;2023-08-12T03:40:12;99105.94;;;15.36;60.22
39491;BME280;25175;50.140;18.990;2023-08-12T03:43:20;99101.09;;;15.33;60.39
39491;BME280;25175;50.140;18.990;2023-08-12T03:46:26;99096.28;;;15.30;60.45
39491;BME280;25175;50.140;18.990;2023-08-12T03:49:30;99086.81;;;15.23;60.47
39491;BME280;25175;50.140;18.990;2023-08-12T03:52:37;99094.31;;;15.26;60.99
39491;BME280;25175;50.140;18.990;2023-08-12T03:55:41;99105.53;;;15.21;61.11
39491;BME280;25175;50.140;18.990;2023-08-12T03:58:53;99097.69;;;15.15;61.58
39491;BME280;25175;50.140;18.990;2023-08-12T04:01:58;99097.91;;;15.13;61.80
39491;BME280;25175;50.140;18.990;2023-08-12T04:05:04;99102.16;;;15.14;61.75
39491;BME280;25175;50.140;18.990;2023-08-12T04:08:09;99100.78;;;15.12;61.90
39491;BME280;25175;50.140;18.990;2023-08-12T04:11:14;99098.13;;;15.12;62.13
39491;BME280;25175;50.140;18.990;2023-08-12T04:14:21;99102.75;;;15.16;62.11
39491;BME280;25175;50.140;18.990;2023-08-12T04:17:27;99095.63;;;15.17;62.65
39491;BME280;25175;50.140;18.990;2023-08-12T04:20:32;99095.63;;;15.17;62.75
39491;BME280;25175;50.140;18.990;2023-08-12T04:23:37;99089.09;;;15.19;62.90
39491;BME280;25175;50.140;18.990;2023-08-12T04:26:42;99090.28;;;15.23;62.94
39491;BME280;25175;50.140;18.990;2023-08-12T04:29:50;99094.53;;;15.24;63.23
39491;BME280;25175;50.140;18.990;2023-08-12T04:32:55;99093.69;;;15.23;63.78
39491;BME280;25175;50.140;18.990;2023-08-12T04:36:04;99090.03;;;15.24;63.89
39491;BME280;25175;50.140;18.990;2023-08-12T04:39:09;99091.41;;;15.27;63.79
39491;BME280;25175;50.140;18.990;2023-08-12T04:42:16;98861.81;;;13.88;64.29
39491;BME280;25175;50.140;18.990;2023-08-12T04:45:24;99100.22;;;15.39;64.31
39491;BME280;25175;50.140;18.990;2023-08-12T04:48:31;99104.03;;;15.43;64.11
39491;BME280;25175;50.140;18.990;2023-08-12T04:51:36;99104.16;;;15.48;64.13
39491;BME280;25175;50.140;18.990;2023-08-12T04:54:43;99098.78;;;15.54;64.25
39491;BME280;25175;50.140;18.990;2023-08-12T04:57:47;99102.34;;;15.60;64.18
39491;BME280;25175;50.140;18.990;2023-08-12T05:00:55;99105.13;;;15.65;64.04
39491;BME280;25175;50.140;18.990;2023-08-12T05:04:01;99094.94;;;15.68;64.23
39491;BME280;25175;50.140;18.990;2023-08-12T05:07:06;99091.13;;;15.64;63.23
39491;BME280;25175;50.140;18.990;2023-08-12T05:10:11;99111.56;;;15.76;62.97
39491;BME280;25175;50.140;18.990;2023-08-12T05:13:17;99105.34;;;15.82;63.06
39491;BME280;25175;50.140;18.990;2023-08-12T05:16:24;99105.22;;;15.88;62.92
39491;BME280;25175;50.140;18.990;2023-08-12T05:19:32;99099.06;;;15.94;62.46
39491;BME280;25175;50.140;18.990;2023-08-12T05:22:37;99097.56;;;15.98;62.14
39491;BME280;25175;50.140;18.990;2023-08-12T05:25:42;99100.31;;;16.03;61.76
39491;BME280;25175;50.140;18.990;2023-08-12T05:28:47;99097.00;;;16.08;61.29
39491;BME280;25175;50.140;18.990;2023-08-12T05:31:55;99100.34;;;16.14;61.49
39491;BME280;25175;50.140;18.990;2023-08-12T05:34:59;99099.88;;;16.17;61.24
39491;BME280;25175;50.140;18.990;2023-08-12T05:38:05;99101.72;;;16.28;60.75
39491;BME280;25175;50.140;18.990;2023-08-12T05:41:09;99108.19;;;16.32;59.83
39491;BME280;25175;50.140;18.990;2023-08-12T05:44:15;99107.28;;;16.38;59.92
39491;BME280;25175;50.140;18.990;2023-08-12T05:47:22;99118.00;;;16.43;59.25
39491;BME280;25175;50.140;18.990;2023-08-12T05:50:28;99109.16;;;16.49;59.18
39491;BME280;25175;50.140;18.990;2023-08-12T05:53:32;99081.59;;;16.39;59.06
39491;BME280;25175;50.140;18.990;2023-08-12T05:56:38;99103.16;;;16.65;59.01
39491;BME280;25175;50.140;18.990;2023-08-12T05:59:43;99103.38;;;16.75;58.76
39491;BME280;25175;50.140;18.990;2023-08-12T06:02:50;99103.00;;;16.83;57.96
39491;BME280;25175;50.140;18.990;2023-08-12T06:05:55;99106.94;;;16.92;57.61
39491;BME280;25175;50.140;18.990;2023-08-12T06:09:00;99095.72;;;17.02;57.29
39491;BME280;25175;50.140;18.990;2023-08-12T06:12:06;99097.53;;;17.13;57.19
39491;BME280;25175;50.140;18.990;2023-08-12T06:15:11;99104.88;;;17.22;57.01
39491;BME280;25175;50.140;18.990;2023-08-12T06:18:18;99109.16;;;17.35;57.22
39491;BME280;25175;50.140;18.990;2023-08-12T06:21:24;99104.03;;;17.45;56.70
39491;BME280;25175;50.140;18.990;2023-08-12T06:24:28;99104.38;;;17.48;56.70
39491;BME280;25175;50.140;18.990;2023-08-12T06:27:34;99110.19;;;17.62;56.16
39491;BME280;25175;50.140;18.990;2023-08-12T06:30:38;99105.84;;;17.72;56.36
39491;BME280;25175;50.140;18.990;2023-08-12T06:33:46;99106.84;;;17.83;56.59
39491;BME280;25175;50.140;18.990;2023-08-12T06:36:51;99105.16;;;17.93;56.41
39491;BME280;25175;50.140;18.990;2023-08-12T06:39:56;99097.41;;;18.03;56.26
39491;BME280;25175;50.140;18.990;2023-08-12T06:43:00;99087.91;;;18.07;54.20
39491;BME280;25175;50.140;18.990;2023-08-12T06:46:06;99097.56;;;18.13;55.11
39491;BME280;25175;50.140;18.990;2023-08-12T06:49:13;99092.44;;;18.23;54.70
39491;BME280;25175;50.140;18.990;2023-08-12T06:52:18;99092.31;;;18.35;54.48
39491;BME280;25175;50.140;18.990;2023-08-12T06:55:23;99097.00;;;18.44;54.16
39491;BME280;25175;50.140;18.990;2023-08-12T06:58:28;98825.97;;;16.81;53.36
39491;BME280;25175;50.140;18.990;2023-08-12T07:01:33;99084.81;;;18.65;53.86
39491;BME280;25175;50.140;18.990;2023-08-12T07:04:41;99086.56;;;18.76;53.80
39491;BME280;25175;50.140;18.990;2023-08-12T07:07:46;99092.03;;;18.86;52.97
39491;BME280;25175;50.140;18.990;2023-08-12T07:10:52;99089.25;;;18.97;52.83
39491;BME280;25175;50.140;18.990;2023-08-12T07:13:57;99098.72;;;19.10;52.59
39491;BME280;25175;50.140;18.990;2023-08-12T07:17:02;99082.88;;;19.20;52.03
39491;BME280;25175;50.140;18.990;2023-08-12T07:20:10;99087.81;;;19.33;52.10
39491;BME280;25175;50.140;18.990;2023-08-12T07:23:15;99086.63;;;19.45;52.23
39491;BME280;25175;50.140;18.990;2023-08-12T07:26:20;99091.81;;;19.57;52.27
39491;BME280;25175;50.140;18.990;2023-08-12T07:29:25;99083.69;;;19.68;51.17
39491;BME280;25175;50.140;18.990;2023-08-12T07:32:30;99082.72;;;19.79;50.60
39491;BME280;25175;50.140;18.990;2023-08-12T07:35:38;99080.69;;;19.91;50.89
39491;BME280;25175;50.140;18.990;2023-08-12T07:38:42;99065.56;;;19.97;50.13
39491;BME280;25175;50.140;18.990;2023-08-12T07:41:47;99069.69;;;20.14;50.55
39491;BME280;25175;50.140;18.990;2023-08-12T07:44:53;99072.75;;;20.28;49.81
39491;BME280;25175;50.140;18.990;2023-08-12T07:47:58;99070.97;;;20.38;49.78
39491;BME280;25175;50.140;18.990;2023-08-12T07:51:06;99062.75;;;20.50;49.02
39491;BME280;25175;50.140;18.990;2023-08-12T07:54:11;99058.84;;;20.62;47.26
39491;BME280;25175;50.140;18.990;2023-08-12T07:57:16;99064.75;;;20.74;49.07
39491;BME280;25175;50.140;18.990;2023-08-12T08:00:25;99055.22;;;20.83;47.99
39491;BME280;25175;50.140;18.990;2023-08-12T08:03:32;99057.97;;;20.93;47.04
39491;BME280;25175;50.140;18.990;2023-08-12T08:06:40;99046.78;;;21.01;47.23
39491;BME280;25175;50.140;18.990;2023-08-12T08:09:45;99051.63;;;21.14;47.63
39491;BME280;25175;50.140;18.990;2023-08-12T08:12:51;99045.25;;;21.25;47.90
39491;BME280;25175;50.140;18.990;2023-08-12T08:15:55;99061.84;;;21.42;47.33
39491;BME280;25175;50.140;18.990;2023-08-12T08:19:01;98850.16;;;20.25;46.18
39491;BME280;25175;50.140;18.990;2023-08-12T08:22:08;99043.75;;;21.54;45.61
39491;BME280;25175;50.140;18.990;2023-08-12T08:25:13;99059.50;;;21.76;46.28
39491;BME280;25175;50.140;18.990;2023-08-12T08:28:18;99056.03;;;21.90;45.37
39491;BME280;25175;50.140;18.990;2023-08-12T08:31:23;99057.13;;;22.04;45.33
39491;BME280;25175;50.140;18.990;2023-08-12T08:34:27;99063.84;;;22.17;45.34
39491;BME280;25175;50.140;18.990;2023-08-12T08:37:36;99044.56;;;22.25;45.12
39491;BME280;25175;50.140;18.990;2023-08-12T08:40:40;99050.69;;;22.40;45.06
39491;BME280;25175;50.140;18.990;2023-08-12T08:43:48;99014.91;;;22.16;44.88
39491;BME280;25175;50.140;18.990;2023-08-12T08:46:53;99047.19;;;22.60;44.11
39491;BME280;25175;50.140;18.990;2023-08-12T08:50:00;99042.09;;;22.63;44.71
39491;BME280;25175;50.140;18.990;2023-08-12T08:53:08;99050.59;;;22.75;43.43
39491;BME280;25175;50.140;18.990;2023-08-12T08:56:14;99048.47;;;22.82;43.83
39491;BME280;25175;50.140;18.990;2023-08-12T08:59:19;99053.78;;;22.87;43.72
39491;BME280;25175;50.140;18.990;2023-08-12T09:02:25;99047.31;;;22.98;44.52
39491;BME280;25175;50.140;18.990;2023-08-12T09:05:31;99051.31;;;23.06;42.69
39491;BME280;25175;50.140;18.990;2023-08-12T09:08:45;99038.38;;;23.18;43.75
39491;BME280;25175;50.140;18.990;2023-08-12T09:11:53;99045.00;;;23.35;42.64
39491;BME280;25175;50.140;18.990;2023-08-12T09:15:01;98999.25;;;23.27;43.69
39491;BME280;25175;50.140;18.990;2023-08-12T09:18:07;99027.44;;;23.58;42.50
39491;BME280;25175;50.140;18.990;2023-08-12T09:21:12;99020.13;;;23.73;43.86
39491;BME280;25175;50.140;18.990;2023-08-12T09:24:27;99025.63;;;23.87;42.05
39491;BME280;25175;50.140;18.990;2023-08-12T09:27:33;99012.72;;;23.89;41.63
39491;BME280;25175;50.140;18.990;2023-08-12T09:30:40;99008.41;;;23.93;43.84
39491;BME280;25175;50.140;18.990;2023-08-12T09:33:46;98999.00;;;24.00;41.34
39491;BME280;25175;50.140;18.990;2023-08-12T09:36:50;99013.00;;;24.21;41.60
39491;BME280;25175;50.140;18.990;2023-08-12T09:39:58;99019.06;;;24.31;42.02
39491;BME280;25175;50.140;18.990;2023-08-12T09:43:06;99003.38;;;24.43;41.20
39491;BME280;25175;50.140;18.990;2023-08-12T09:46:13;99003.78;;;24.55;41.85
39491;BME280;25175;50.140;18.990;2023-08-12T09:49:18;98998.91;;;24.62;40.32
39491;BME280;25175;50.140;18.990;2023-08-12T09:52:23;98990.25;;;24.65;40.00
39491;BME280;25175;50.140;18.990;2023-08-12T09:55:35;98995.38;;;24.85;40.70
39491;BME280;25175;50.140;18.990;2023-08-12T09:58:44;98989.59;;;24.97;40.95
39491;BME280;25175;50.140;18.990;2023-08-12T10:01:53;98994.31;;;25.05;39.16
39491;BME280;25175;50.140;18.990;2023-08-12T10:05:00;98989.94;;;25.14;39.24
39491;BME280;25175;50.140;18.990;2023-08-12T10:08:07;98991.88;;;25.27;39.65
39491;BME280;25175;50.140;18.990;2023-08-12T10:11:15;98989.53;;;25.39;38.36
39491;BME280;25175;50.140;18.990;2023-08-12T10:14:21;98991.38;;;25.43;38.61
39491;BME280;25175;50.140;18.990;2023-08-12T10:17:28;98989.19;;;25.45;37.71
39491;BME280;25175;50.140;18.990;2023-08-12T10:20:35;98991.78;;;25.50;38.00
39491;BME280;25175;50.140;18.990;2023-08-12T10:23:42;98990.03;;;25.59;39.20
39491;BME280;25175;50.140;18.990;2023-08-12T10:26:54;98984.44;;;25.74;38.79
39491;BME280;25175;50.140;18.990;2023-08-12T10:30:03;98973.97;;;25.73;38.17
39491;BME280;25175;50.140;18.990;2023-08-12T10:33:10;98973.22;;;25.86;38.50
39491;BME280;25175;50.140;18.990;2023-08-12T10:36:16;98747.97;;;24.60;38.67
39491;BME280;25175;50.140;18.990;2023-08-12T10:39:25;98979.44;;;26.13;37.83
39491;BME280;25175;50.140;18.990;2023-08-12T10:42:45;98970.69;;;26.21;37.11
39491;BME280;25175;50.140;18.990;2023-08-12T10:45:52;98973.38;;;26.21;37.80
39491;BME280;25175;50.140;18.990;2023-08-12T10:49:03;98964.63;;;26.29;38.36
39491;BME280;25175;50.140;18.990;2023-08-12T10:52:26;98939.06;;;26.13;37.40
39491;BME280;25175;50.140;18.990;2023-08-12T10:55:36;98948.28;;;26.39;37.21
39491;BME280;25175;50.140;18.990;2023-08-12T10:58:47;98957.56;;;26.33;36.86
39491;BME280;25175;50.140;18.990;2023-08-12T11:01:53;98953.88;;;26.29;36.84
39491;BME280;25175;50.140;18.990;2023-08-12T11:05:01;98954.16;;;26.41;36.36
39491;BME280;25175;50.140;18.990;2023-08-12T11:08:07;98737.75;;;25.26;38.10
39491;BME280;25175;50.140;18.990;2023-08-12T11:11:19;98944.59;;;26.62;37.40
39491;BME280;25175;50.140;18.990;2023-08-12T11:14:29;98944.19;;;26.69;36.16
39491;BME280;25175;50.140;18.990;2023-08-12T11:17:35;98930.63;;;26.74;37.12
39491;BME280;25175;50.140;18.990;2023-08-12T11:20:42;98929.31;;;26.71;35.53
39491;BME280;25175;50.140;18.990;2023-08-12T11:23:47;98933.91;;;26.71;35.50
39491;BME280;25175;50.140;18.990;2023-08-12T11:26:53;98927.91;;;26.74;36.60
39491;BME280;25175;50.140;18.990;2023-08-12T11:30:01;98935.00;;;26.83;36.18
39491;BME280;25175;50.140;18.990;2023-08-12T11:33:06;98931.97;;;26.98;35.94
39491;BME280;25175;50.140;18.990;2023-08-12T11:36:11;98929.66;;;27.05;35.32
39491;BME280;25175;50.140;18.990;2023-08-12T11:39:17;98912.88;;;27.08;36.59
39491;BME280;25175;50.140;18.990;2023-08-12T11:42:22;98922.81;;;27.21;35.29
39491;BME280;25175;50.140;18.990;2023-08-12T11:45:30;98927.69;;;27.19;34.56
39491;BME280;25175;50.140;18.990;2023-08-12T11:48:34;98916.63;;;27.21;33.66
39491;BME280;25175;50.140;18.990;2023-08-12T11:51:41;98910.50;;;27.29;33.96
39491;BME280;25175;50.140;18.990;2023-08-12T11:54:49;98906.72;;;27.30;34.02
39491;BME280;25175;50.140;18.990;2023-08-12T11:57:55;98918.19;;;27.35;34.61
39491;BME280;25175;50.140;18.990;2023-08-12T12:01:02;98914.25;;;27.41;34.83
39491;BME280;25175;50.140;18.990;2023-08-12T12:04:10;98876.69;;;27.23;34.84
39491;BME280;25175;50.140;18.990;2023-08-12T12:07:18;98892.44;;;27.51;34.74
39491;BME280;25175;50.140;18.990;2023-08-12T12:10:27;98890.72;;;27.55;35.15
39491;BME280;25175;50.140;18.990;2023-08-12T12:13:34;98845.19;;;27.32;35.01
39491;BME280;25175;50.140;18.990;2023-08-12T12:16:44;98875.69;;;27.63;36.34
39491;BME280;25175;50.140;18.990;2023-08-12T12:19:53;98883.16;;;27.66;35.13
39491;BME280;25175;50.140;18.990;2023-08-12T12:23:06;98876.84;;;27.70;34.84
39491;BME280;25175;50.140;18.990;2023-08-12T12:26:11;98878.31;;;27.76;33.66
39491;BME280;25175;50.140;18.990;2023-08-12T12:29:16;98874.06;;;27.84;34.30
39491;BME280;25175;50.140;18.990;2023-08-12T12:32:23;98862.69;;;27.95;34.62
39491;BME280;25175;50.140;18.990;2023-08-12T12:35:29;98861.81;;;28.08;35.61
39491;BME280;25175;50.140;18.990;2023-08-12T12:38:33;98852.78;;;28.21;35.89
39491;BME280;25175;50.140;18.990;2023-08-12T12:41:39;98861.88;;;28.34;35.90
39491;BME280;25175;50.140;18.990;2023-08-12T12:44:43;98859.06;;;28.39;33.63
39491;BME280;25175;50.140;18.990;2023-08-12T12:47:51;98844.28;;;28.36;33.82
39491;BME280;25175;50.140;18.990;2023-08-12T12:50:56;98856.66;;;28.37;35.10
39491;BME280;25175;50.140;18.990;2023-08-12T12:54:01;98845.72;;;28.42;33.75
39491;BME280;25175;50.140;18.990;2023-08-12T12:57:06;98846.34;;;28.48;33.45
39491;BME280;25175;50.140;18.990;2023-08-12T13:00:12;98845.56;;;28.56;35.36
39491;BME280;25175;50.140;18.990;2023-08-12T13:03:20;98829.69;;;28.54;33.99
39491;BME280;25175;50.140;18.990;2023-08-12T13:06:25;98828.88;;;28.62;34.29
39491;BME280;25175;50.140;18.990;2023-08-12T13:09:30;98834.47;;;28.74;34.23
39491;BME280;25175;50.140;18.990;2023-08-12T13:12:35;98826.19;;;28.71;32.39
39491;BME280;25175;50.140;18.990;2023-08-12T13:15:40;98644.06;;;27.53;33.56
39491;BME280;25175;50.140;18.990;2023-08-12T13:18:48;98829.22;;;28.69;32.99
39491;BME280;25175;50.140;18.990;2023-08-12T13:21:52;98818.72;;;28.68;33.19
39491;BME280;25175;50.140;18.990;2023-08-12T13:24:57;98819.34;;;28.65;33.26
39491;BME280;25175;50.140;18.990;2023-08-12T13:28:03;98819.84;;;28.75;33.84
39491;BME280;25175;50.140;18.990;2023-08-12T13:31:09;98818.56;;;28.81;33.06
39491;BME280;25175;50.140;18.990;2023-08-12T13:34:17;98807.59;;;28.78;31.81
39491;BME280;25175;50.140;18.990;2023-08-12T13:37:22;98812.34;;;28.72;32.80
39491;BME280;25175;50.140;18.990;2023-08-12T13:40:27;98820.47;;;28.89;34.16
39491;BME280;25175;50.140;18.990;2023-08-12T13:43:32;98813.63;;;29.00;33.21
39491;BME280;25175;50.140;18.990;2023-08-12T13:46:37;98805.66;;;29.04;33.37
39491;BME280;25175;50.140;18.990;2023-08-12T13:49:45;98803.16;;;29.07;32.54
39491;BME280;25175;50.140;18.990;2023-08-12T13:52:49;98801.53;;;29.06;32.40
39491;BME280;25175;50.140;18.990;2023-08-12T13:55:54;98805.34;;;29.14;33.31
39491;BME280;25175;50.140;18.990;2023-08-12T13:58:59;98795.00;;;29.24;32.36
39491;BME280;25175;50.140;18.990;2023-08-12T14:02:04;98795.28;;;29.31;33.53
39491;BME280;25175;50.140;18.990;2023-08-12T14:05:12;98780.19;;;29.30;31.92
39491;BME280;25175;50.140;18.990;2023-08-12T14:08:17;98787.00;;;29.45;32.43
39491;BME280;25175;50.140;18.990;2023-08-12T14:11:22;98779.03;;;29.48;32.67
39491;BME280;25175;50.140;18.990;2023-08-12T14:14:30;98785.53;;;29.56;31.76
39491;BME280;25175;50.140;18.990;2023-08-12T14:17:34;98773.91;;;29.55;32.02
39491;BME280;25175;50.140;18.990;2023-08-12T14:20:42;98776.91;;;29.62;32.32
39491;BME280;25175;50.140;18.990;2023-08-12T14:23:47;98778.50;;;29.63;30.56
39491;BME280;25175;50.140;18.990;2023-08-12T14:26:53;98751.97;;;29.48;31.59
39491;BME280;25175;50.140;18.990;2023-08-12T14:29:58;98762.44;;;29.58;32.18
39491;BME280;25175;50.140;18.990;2023-08-12T14:33:03;98760.72;;;29.54;31.27
39491;BME280;25175;50.140;18.990;2023-08-12T14:36:10;98763.75;;;29.52;30.77
39491;BME280;25175;50.140;18.990;2023-08-12T14:39:16;98763.09;;;29.55;31.26
39491;BME280;25175;50.140;18.990;2023-08-12T14:42:20;98755.44;;;29.57;31.61
39491;BME280;25175;50.140;18.990;2023-08-12T14:45:25;98758.47;;;29.56;31.39
39491;BME280;25175;50.140;18.990;2023-08-12T14:48:31;98745.13;;;29.51;31.22
39491;BME280;25175;50.140;18.990;2023-08-12T14:51:39;98744.00;;;29.52;32.26
39491;BME280;25175;50.140;18.990;2023-08-12T14:54:44;98742.16;;;29.44;30.69
39491;BME280;25175;50.140;18.990;2023-08-12T14:57:49;98734.66;;;29.41;30.48
39491;BME280;25175;50.140;18.990;2023-08-12T15:00:54;98741.53;;;29.38;30.90
39491;BME280;25175;50.140;18.990;2023-08-12T15:04:03;98746.94;;;29.38;31.10
39491;BME280;25175;50.140;18.990;2023-08-12T15:07:10;98737.50;;;29.44;32.28
39491;BME280;25175;50.140;18.990;2023-08-12T15:10:16;98720.03;;;29.42;30.61
39491;BME280;25175;50.140;18.990;2023-08-12T15:13:21;98723.50;;;29.51;30.15
39491;BME280;25175;50.140;18.990;2023-08-12T15:16:26;98720.66;;;29.47;29.80
39491;BME280;25175;50.140;18.990;2023-08-12T15:19:32;98720.84;;;29.42;29.80
39491;BME280;25175;50.140;18.990;2023-08-12T15:22:40;98724.97;;;29.40;30.81
39491;BME280;25175;50.140;18.990;2023-08-12T15:25:45;98714.97;;;29.32;29.28
39491;BME280;25175;50.140;18.990;2023-08-12T15:28:51;98708.78;;;29.23;29.44
39491;BME280;25175;50.140;18.990;2023-08-12T15:31:55;98703.88;;;29.16;29.98
39491;BME280;25175;50.140;18.990;2023-08-12T15:35:01;98712.13;;;29.20;30.26
39491;BME280;25175;50.140;18.990;2023-08-12T15:38:08;98711.22;;;29.16;30.74
39491;BME280;25175;50.140;18.990;2023-08-12T15:41:15;98688.50;;;29.08;30.17
39491;BME280;25175;50.140;18.990;2023-08-12T15:44:21;98701.66;;;29.18;29.97
39491;BME280;25175;50.140;18.990;2023-08-12T15:47:27;98708.03;;;29.14;30.13
39491;BME280;25175;50.140;18.990;2023-08-12T15:50:33;98703.59;;;29.09;30.31
39491;BME280;25175;50.140;18.990;2023-08-12T15:53:41;98698.34;;;29.13;30.82
39491;BME280;25175;50.140;18.990;2023-08-12T15:56:46;98697.06;;;29.10;29.72
39491;BME280;25175;50.140;18.990;2023-08-12T15:59:52;98691.84;;;29.05;30.38
39491;BME280;25175;50.140;18.990;2023-08-12T16:02:57;98684.75;;;28.92;29.64
39491;BME280;25175;50.140;18.990;2023-08-12T16:06:03;98707.78;;;28.90;30.31
39491;BME280;25175;50.140;18.990;2023-08-12T16:09:11;98705.53;;;28.83;30.45
39491;BME280;25175;50.140;18.990;2023-08-12T16:12:16;98699.69;;;28.81;30.67
39491;BME280;25175;50.140;18.990;2023-08-12T16:15:20;98710.47;;;28.81;31.41